createdAt,value
2019-03-30T00:02:18.155Z,9.28
2019-03-30T00:04:49.338Z,9.70
2019-03-30T00:07:20.452Z,8.50
2019-03-30T00:09:54.457Z,10.08
2019-03-30T00:12:27.757Z,9.85
2019-03-30T00:14:59.790Z,10.18
2019-03-30T00:17:31.394Z,9.43
2019-03-30T00:20:03.265Z,9.10
2019-03-30T00:22:34.288Z,9.23
2019-03-30T00:25:05.250Z,10.88
2019-03-30T00:27:36.108Z,8.35
2019-03-30T00:30:07.830Z,10.45
2019-03-30T00:32:38.646Z,7.90
2019-03-30T00:35:09.403Z,9.45
2019-03-30T00:37:40.136Z,8.10
2019-03-30T00:40:10.911Z,9.15
2019-03-30T00:42:41.605Z,9.98
2019-03-30T00:45:12.762Z,8.40
2019-03-30T00:47:43.486Z,8.45
2019-03-30T00:50:14.292Z,7.97
2019-03-30T00:52:44.960Z,7.75
2019-03-30T00:55:15.695Z,7.78
2019-03-30T00:57:47.345Z,8.53
2019-03-30T01:00:18.229Z,8.30
2019-03-30T01:02:48.986Z,7.85
2019-03-30T01:05:19.624Z,7.45
2019-03-30T01:07:50.372Z,7.33
2019-03-30T01:10:21.129Z,7.37
2019-03-30T01:12:51.892Z,8.03
2019-03-30T01:15:22.513Z,7.87
2019-03-30T01:17:53.263Z,7.67
2019-03-30T01:20:23.898Z,6.83
2019-03-30T01:22:57.325Z,7.58
2019-03-30T01:25:28.039Z,9.78
2019-03-30T01:27:58.752Z,7.12
2019-03-30T01:30:29.399Z,9.00
2019-03-30T01:33:00.096Z,6.85
2019-03-30T01:35:30.742Z,7.70
2019-03-30T01:38:01.463Z,8.15
2019-03-30T01:40:32.136Z,9.10
2019-03-30T01:43:02.832Z,7.60
2019-03-30T01:45:33.603Z,7.72
2019-03-30T01:48:04.403Z,8.05
2019-03-30T01:50:35.139Z,8.83
2019-03-30T01:53:05.830Z,9.03
2019-03-30T01:55:36.526Z,8.20
2019-03-30T01:58:07.226Z,7.45
2019-03-30T02:00:38.368Z,7.75
2019-03-30T02:03:09.078Z,7.35
2019-03-30T02:05:39.729Z,8.03
2019-03-30T02:08:11.536Z,9.13
2019-03-30T02:10:45.441Z,8.68
2019-03-30T02:13:16.177Z,9.75
2019-03-30T02:15:46.846Z,9.10
2019-03-30T02:18:17.535Z,7.10
2019-03-30T02:20:48.940Z,6.80
2019-03-30T02:23:20.718Z,9.55
2019-03-30T02:25:51.375Z,7.85
2019-03-30T02:28:22.080Z,9.68
2019-03-30T02:30:52.744Z,9.03
2019-03-30T02:33:23.428Z,8.00
2019-03-30T02:35:54.087Z,9.25
2019-03-30T02:38:24.762Z,7.72
2019-03-30T02:40:55.504Z,9.43
2019-03-30T02:43:26.242Z,7.50
2019-03-30T02:45:56.876Z,9.60
2019-03-30T02:48:27.568Z,9.33
2019-03-30T02:50:59.492Z,9.35
2019-03-30T02:53:30.146Z,7.72
2019-03-30T02:56:00.782Z,8.60
2019-03-30T02:58:31.455Z,9.18
2019-03-30T03:01:02.101Z,10.28
2019-03-30T03:03:33.341Z,9.35
2019-03-30T03:06:04.396Z,9.55
2019-03-30T03:08:35.099Z,9.93
2019-03-30T03:11:05.758Z,11.08
2019-03-30T03:13:36.481Z,9.85
2019-03-30T03:16:07.222Z,8.40
2019-03-30T03:18:37.951Z,9.53
2019-03-30T03:21:09.039Z,9.80
2019-03-30T03:23:40.016Z,10.48
2019-03-30T03:26:10.802Z,8.83
2019-03-30T03:28:41.512Z,10.38
2019-03-30T03:31:12.222Z,10.05
2019-03-30T03:33:42.954Z,10.08
2019-03-30T03:36:13.587Z,9.85
2019-03-30T03:38:44.274Z,9.40
2019-03-30T03:41:14.913Z,10.03
2019-03-30T03:43:45.588Z,9.63
2019-03-30T03:46:16.606Z,9.70
2019-03-30T03:48:50.315Z,10.10
2019-03-30T03:51:26.062Z,10.28
2019-03-30T03:53:55.898Z,9.80
2019-03-30T03:56:28.500Z,10.45
2019-03-30T03:59:03.220Z,9.70
2019-03-30T04:01:35.786Z,9.58
2019-03-30T04:04:08.584Z,10.85
2019-03-30T04:06:41.434Z,10.82
2019-03-30T04:09:13.706Z,10.10
2019-03-30T04:11:46.414Z,10.15
2019-03-30T04:14:20.392Z,11.35
2019-03-30T04:16:51.109Z,11.57
2019-03-30T04:19:21.792Z,11.48
2019-03-30T04:21:52.472Z,10.75
2019-03-30T04:24:23.158Z,11.25
2019-03-30T04:26:53.811Z,11.60
2019-03-30T04:29:24.494Z,10.60
2019-03-30T04:31:55.147Z,11.08
2019-03-30T04:34:25.899Z,12.60
2019-03-30T04:36:56.641Z,11.45
2019-03-30T04:39:27.331Z,12.50
2019-03-30T04:41:58.009Z,11.33
2019-03-30T04:44:28.699Z,11.18
2019-03-30T04:46:59.366Z,11.63
2019-03-30T04:49:30.068Z,12.13
2019-03-30T04:52:00.777Z,11.85
2019-03-30T04:54:31.613Z,11.25
2019-03-30T04:57:02.398Z,11.93
2019-03-30T04:59:33.086Z,12.75
2019-03-30T05:02:03.771Z,11.78
2019-03-30T05:04:34.475Z,11.08
2019-03-30T05:07:05.076Z,11.38
2019-03-30T05:09:35.863Z,10.30
2019-03-30T05:12:06.469Z,10.18
2019-03-30T05:14:37.235Z,12.23
2019-03-30T05:17:07.870Z,11.25
2019-03-30T05:19:38.645Z,12.10
2019-03-30T05:22:12.826Z,10.85
2019-03-30T05:24:42.806Z,12.18
2019-03-30T05:27:13.511Z,10.68
2019-03-30T05:29:44.164Z,12.47
2019-03-30T05:32:14.811Z,10.43
2019-03-30T05:34:45.502Z,11.08
2019-03-30T05:37:16.359Z,12.40
2019-03-30T05:39:50.317Z,12.05
2019-03-30T05:42:23.770Z,12.37
2019-03-30T05:44:57.656Z,11.75
2019-03-30T05:47:26.903Z,11.57
2019-03-30T05:49:59.928Z,12.05
2019-03-30T05:52:30.584Z,13.58
2019-03-30T05:55:01.315Z,13.35
2019-03-30T05:57:32.060Z,13.95
2019-03-30T06:00:02.831Z,11.48
2019-03-30T06:02:35.820Z,13.75
2019-03-30T06:05:07.154Z,12.35
2019-03-30T06:07:38.250Z,11.83
2019-03-30T06:10:10.065Z,11.78
2019-03-30T06:12:43.464Z,11.57
2019-03-30T06:15:14.126Z,13.68
2019-03-30T06:17:45.077Z,13.43
2019-03-30T06:20:18.787Z,12.98
2019-03-30T06:22:51.209Z,12.53
2019-03-30T06:25:22.168Z,12.90
2019-03-30T06:27:52.854Z,14.78
2019-03-30T06:30:25.052Z,12.45
2019-03-30T06:32:55.738Z,12.80
2019-03-30T06:35:29.850Z,13.60
2019-03-30T06:38:07.506Z,12.78
2019-03-30T06:40:42.122Z,12.65
2019-03-30T06:43:12.887Z,14.87
2019-03-30T06:45:43.566Z,13.70
2019-03-30T06:48:14.386Z,15.68
2019-03-30T06:50:49.874Z,13.98
2019-03-30T06:53:25.008Z,14.00
2019-03-30T06:55:55.706Z,13.85
2019-03-30T06:58:26.396Z,13.48
2019-03-30T07:00:59.370Z,13.80
2019-03-30T07:03:29.728Z,13.48
2019-03-30T07:06:02.710Z,13.40
2019-03-30T07:08:35.557Z,13.75
2019-03-30T07:11:20.208Z,13.80
2019-03-30T07:13:40.588Z,12.35
2019-03-30T07:16:11.401Z,13.03
2019-03-30T07:18:43.913Z,13.43
2019-03-30T07:21:14.601Z,13.68
2019-03-30T07:23:45.316Z,13.88
2019-03-30T07:26:16.007Z,12.63
2019-03-30T07:28:47.278Z,13.65
2019-03-30T07:31:18.217Z,13.20
2019-03-30T07:33:51.720Z,13.10
2019-03-30T07:36:25.176Z,12.75
2019-03-30T07:38:57.978Z,12.70
2019-03-30T07:41:29.189Z,12.00
2019-03-30T07:43:59.911Z,11.70
2019-03-30T07:46:30.653Z,12.37
2019-03-30T07:49:04.443Z,9.90
2019-03-30T07:51:35.572Z,10.70
2019-03-30T07:54:06.360Z,10.80
2019-03-30T07:56:37.348Z,11.22
2019-03-30T07:59:08.105Z,11.55
2019-03-30T08:01:38.832Z,11.18
2019-03-30T08:04:09.713Z,10.45
2019-03-30T08:06:40.444Z,11.57
2019-03-30T08:09:11.732Z,10.25
2019-03-30T08:11:42.415Z,10.45
2019-03-30T08:14:13.135Z,10.80
2019-03-30T08:16:43.922Z,10.20
2019-03-30T08:19:14.599Z,10.72
2019-03-30T08:21:45.331Z,10.23
2019-03-30T08:24:15.997Z,10.93
2019-03-30T08:26:46.721Z,10.40
2019-03-30T08:29:18.199Z,9.43
2019-03-30T08:31:50.149Z,7.97
2019-03-30T08:34:21.995Z,8.55
2019-03-30T08:36:52.678Z,8.20
2019-03-30T08:39:23.385Z,10.88
2019-03-30T08:41:54.045Z,10.18
2019-03-30T08:44:24.718Z,9.55
2019-03-30T08:46:55.467Z,8.73
2019-03-30T08:49:26.168Z,7.78
2019-03-30T08:51:56.904Z,9.15
2019-03-30T08:54:27.610Z,9.13
2019-03-30T08:56:58.517Z,7.90
2019-03-30T08:59:29.277Z,7.83
2019-03-30T09:02:00.179Z,6.58
2019-03-30T09:04:30.983Z,8.40
2019-03-30T09:07:03.271Z,8.43
2019-03-30T09:09:33.999Z,8.00
2019-03-30T09:12:04.803Z,7.95
2019-03-30T09:14:36.591Z,6.35
2019-03-30T09:17:07.258Z,7.45
2019-03-30T09:19:37.938Z,7.42
2019-03-30T09:22:08.655Z,8.70
2019-03-30T09:24:39.344Z,8.23
2019-03-30T09:27:10.014Z,7.47
2019-03-30T09:29:40.752Z,8.18
2019-03-30T09:32:14.770Z,8.35
2019-03-30T09:34:43.847Z,7.80
2019-03-30T09:37:14.566Z,7.45
2019-03-30T09:39:45.369Z,6.10
2019-03-30T09:42:16.130Z,6.53
2019-03-30T09:44:46.859Z,6.83
2019-03-30T09:47:17.659Z,7.87
2019-03-30T09:49:48.440Z,7.75
2019-03-30T09:52:19.271Z,7.22
2019-03-30T09:54:49.942Z,6.85
2019-03-30T09:57:20.877Z,7.67
2019-03-30T09:59:51.568Z,6.53
2019-03-30T10:02:22.261Z,10.00
2019-03-30T10:04:53.044Z,7.10
2019-03-30T10:07:23.825Z,5.25
2019-03-30T10:09:54.511Z,6.10
2019-03-30T10:12:25.142Z,4.70
2019-03-30T10:14:55.838Z,5.47
2019-03-30T10:17:26.545Z,5.58
2019-03-30T10:20:04.111Z,6.20
2019-03-30T10:22:30.164Z,3.75
2019-03-30T10:25:00.930Z,4.58
2019-03-30T10:27:31.549Z,5.95
2019-03-30T10:30:02.282Z,7.47
2019-03-30T10:32:33.002Z,6.15
2019-03-30T10:35:03.663Z,4.40
2019-03-30T10:37:35.324Z,5.22
2019-03-30T10:40:06.774Z,5.78
2019-03-30T10:42:37.506Z,6.55
2019-03-30T10:45:09.958Z,6.22
2019-03-30T10:47:40.816Z,6.47
2019-03-30T10:50:11.633Z,5.17
2019-03-30T10:52:42.282Z,4.80
2019-03-30T10:55:13.934Z,4.70
2019-03-30T10:57:44.684Z,4.67
2019-03-30T11:00:21.330Z,6.50
2019-03-30T11:02:52.058Z,7.50
2019-03-30T11:05:22.822Z,5.83
2019-03-30T11:07:54.564Z,6.83
2019-03-30T11:10:25.297Z,6.33
2019-03-30T11:12:55.979Z,6.97
2019-03-30T11:15:26.650Z,5.67
2019-03-30T11:17:57.342Z,5.87
2019-03-30T11:20:28.070Z,7.90
2019-03-30T11:22:58.768Z,7.55
2019-03-30T11:25:29.694Z,6.42
2019-03-30T11:28:00.389Z,7.50
2019-03-30T11:30:31.163Z,7.42
2019-03-30T11:33:01.938Z,6.47
2019-03-30T11:35:32.566Z,6.58
2019-03-30T11:38:03.274Z,6.50
2019-03-30T11:40:34.035Z,5.60
2019-03-30T11:43:04.686Z,4.60
2019-03-30T11:45:36.930Z,6.10
2019-03-30T11:48:07.802Z,4.25
2019-03-30T11:50:40.184Z,3.65
2019-03-30T11:53:10.919Z,2.52
2019-03-30T11:55:41.662Z,2.12
2019-03-30T11:58:12.655Z,3.72
2019-03-30T12:00:43.383Z,2.50
2019-03-30T12:03:14.218Z,2.87
2019-03-30T12:05:45.493Z,2.65
2019-03-30T12:08:17.314Z,2.08
2019-03-30T12:10:48.782Z,1.67
2019-03-30T12:13:19.475Z,3.85
2019-03-30T12:15:51.589Z,3.15
2019-03-30T12:18:24.520Z,3.67
2019-03-30T12:20:56.596Z,2.67
2019-03-30T12:23:27.268Z,3.45
2019-03-30T12:25:57.949Z,1.57
2019-03-30T12:28:28.610Z,2.08
2019-03-30T12:31:01.934Z,1.87
2019-03-30T12:33:32.840Z,1.75
2019-03-30T12:36:03.546Z,1.90
2019-03-30T12:38:35.064Z,1.87
2019-03-30T12:41:09.623Z,2.42
2019-03-30T12:43:40.512Z,1.90
2019-03-30T12:46:15.880Z,1.70
2019-03-30T12:48:46.998Z,1.77
2019-03-30T12:51:17.964Z,1.25
2019-03-30T12:53:50.818Z,1.85
2019-03-30T12:56:21.883Z,1.47
2019-03-30T12:58:55.556Z,1.75
2019-03-30T13:01:26.979Z,1.92
2019-03-30T13:03:58.978Z,2.37
2019-03-30T13:06:30.307Z,2.83
2019-03-30T13:09:05.457Z,1.30
2019-03-30T13:11:36.265Z,1.90
2019-03-30T13:14:07.091Z,2.60
2019-03-30T13:16:39.317Z,2.87
2019-03-30T13:19:10.565Z,2.30
2019-03-30T13:21:52.299Z,3.90
2019-03-30T13:24:14.025Z,3.30
2019-03-30T13:26:47.639Z,2.75
2019-03-30T13:29:18.676Z,2.80
2019-03-30T13:31:54.736Z,1.92
2019-03-30T13:34:27.811Z,2.80
2019-03-30T13:36:59.265Z,2.08
2019-03-30T13:39:30.665Z,3.27
2019-03-30T13:42:01.798Z,2.95
2019-03-30T13:44:33.407Z,2.35
2019-03-30T13:47:05.258Z,3.40
2019-03-30T13:49:38.771Z,3.22
2019-03-30T13:52:09.615Z,2.17
2019-03-30T13:54:40.426Z,2.55
2019-03-30T13:57:15.445Z,2.33
2019-03-30T13:59:50.097Z,1.75
2019-03-30T14:02:24.640Z,1.60
2019-03-30T14:04:55.874Z,1.50
2019-03-30T14:07:27.512Z,1.40
2019-03-30T14:09:58.853Z,1.80
2019-03-30T14:12:31.185Z,1.90
2019-03-30T14:15:02.324Z,2.42
2019-03-30T14:17:36.311Z,1.87
2019-03-30T14:20:08.168Z,1.32
2019-03-30T14:22:39.458Z,0.98
2019-03-30T14:25:10.584Z,0.98
2019-03-30T14:27:42.453Z,0.95
2019-03-30T14:30:14.437Z,1.45
2019-03-30T14:32:50.056Z,1.25
2019-03-30T14:35:23.126Z,1.52
2019-03-30T14:37:54.338Z,1.32
2019-03-30T14:40:25.548Z,2.40
2019-03-30T14:42:56.726Z,2.30
2019-03-30T14:45:29.515Z,2.05
2019-03-30T14:48:00.544Z,1.45
2019-03-30T14:50:35.962Z,2.27
2019-03-30T14:53:09.840Z,2.17
2019-03-30T14:55:41.046Z,1.75
2019-03-30T14:58:18.963Z,2.22
2019-03-30T15:00:48.393Z,1.50
2019-03-30T15:03:19.371Z,2.50
2019-03-30T15:05:50.453Z,1.98
2019-03-30T15:08:26.056Z,2.17
2019-03-30T15:10:59.456Z,2.22
2019-03-30T15:13:30.490Z,3.00
2019-03-30T15:16:01.484Z,3.00
2019-03-30T15:18:33.839Z,3.30
2019-03-30T15:21:09.477Z,2.60
2019-03-30T15:23:40.589Z,2.35
2019-03-30T15:26:11.752Z,2.40
2019-03-30T15:28:44.401Z,2.25
2019-03-30T15:31:15.469Z,1.82
2019-03-30T15:33:53.559Z,2.55
2019-03-30T15:36:26.464Z,2.33
2019-03-30T15:38:58.246Z,2.92
2019-03-30T15:41:32.219Z,3.10
2019-03-30T15:44:05.057Z,3.10
2019-03-30T15:46:36.819Z,2.90
2019-03-30T15:49:09.804Z,3.75
2019-03-30T15:51:41.870Z,3.30
2019-03-30T15:54:12.847Z,3.10
2019-03-30T15:56:47.655Z,4.45
2019-03-30T15:59:18.778Z,3.72
2019-03-30T16:01:49.767Z,4.03
2019-03-30T16:04:20.685Z,3.98
2019-03-30T16:06:51.675Z,5.05
2019-03-30T16:09:23.226Z,5.97
2019-03-30T16:11:54.134Z,4.97
2019-03-30T16:14:25.258Z,7.42
2019-03-30T16:16:56.115Z,7.00
2019-03-30T16:19:27.139Z,5.58
2019-03-30T16:21:58.374Z,6.55
2019-03-30T16:24:30.191Z,6.05
2019-03-30T16:27:03.378Z,5.80
2019-03-30T16:29:34.507Z,6.20
2019-03-30T16:32:05.510Z,6.25
2019-03-30T16:34:36.536Z,6.53
2019-03-30T16:37:07.739Z,6.35
2019-03-30T16:39:38.800Z,6.33
2019-03-30T16:42:12.321Z,7.05
2019-03-30T16:44:44.081Z,7.00
2019-03-30T16:47:15.035Z,7.08
2019-03-30T16:49:46.082Z,7.33
2019-03-30T16:52:17.563Z,7.80
2019-03-30T16:54:50.653Z,8.65
2019-03-30T16:57:22.683Z,6.45
2019-03-30T16:59:54.067Z,5.78
2019-03-30T17:02:26.454Z,7.25
2019-03-30T17:04:57.441Z,6.47
2019-03-30T17:07:28.407Z,6.55
2019-03-30T17:09:59.241Z,5.45
2019-03-30T17:12:30.163Z,5.22
2019-03-30T17:15:01.091Z,4.87
2019-03-30T17:17:32.325Z,5.75
2019-03-30T17:20:05.105Z,5.15
2019-03-30T17:22:36.106Z,4.50
2019-03-30T17:25:08.195Z,4.62
2019-03-30T17:27:39.275Z,4.75
2019-03-30T17:30:10.698Z,4.92
2019-03-30T17:32:41.787Z,4.03
2019-03-30T17:35:12.513Z,5.17
2019-03-30T17:37:44.609Z,5.12
2019-03-30T17:40:15.659Z,6.12
2019-03-30T17:42:46.625Z,6.12
2019-03-30T17:45:17.855Z,5.12
2019-03-30T17:47:48.838Z,4.85
2019-03-30T17:50:19.964Z,5.30
2019-03-30T17:52:51.404Z,7.03
2019-03-30T17:55:34.104Z,5.33
2019-03-30T17:58:12.962Z,5.37
2019-03-30T18:00:35.653Z,5.20
2019-03-30T18:03:07.461Z,6.47
2019-03-30T18:05:39.956Z,6.67
2019-03-30T18:08:12.075Z,7.05
2019-03-30T18:10:43.035Z,5.47
2019-03-30T18:13:14.575Z,5.28
2019-03-30T18:15:45.370Z,5.90
2019-03-30T18:18:18.316Z,5.60
2019-03-30T18:20:49.051Z,6.25
2019-03-30T18:23:19.890Z,5.60
2019-03-30T18:25:50.641Z,7.00
2019-03-30T18:28:27.256Z,6.35
2019-03-30T18:30:56.122Z,6.65
2019-03-30T18:33:27.173Z,5.37
2019-03-30T18:35:58.584Z,5.92
2019-03-30T18:38:29.944Z,6.10
2019-03-30T18:41:00.819Z,7.85
2019-03-30T18:43:31.958Z,7.20
2019-03-30T18:46:02.987Z,6.40
2019-03-30T18:48:35.722Z,8.38
2019-03-30T18:51:10.148Z,5.30
2019-03-30T18:53:41.336Z,7.33
2019-03-30T18:56:12.342Z,6.42
2019-03-30T18:58:44.686Z,6.35
2019-03-30T19:01:15.471Z,7.15
2019-03-30T19:03:47.041Z,6.35
2019-03-30T19:06:18.231Z,7.17
2019-03-30T19:08:49.205Z,6.08
2019-03-30T19:11:20.274Z,7.47
2019-03-30T19:13:51.640Z,5.75
2019-03-30T19:16:22.661Z,7.95
2019-03-30T19:18:53.980Z,7.28
2019-03-30T19:21:24.912Z,7.25
2019-03-30T19:23:55.840Z,7.12
2019-03-30T19:26:26.728Z,8.78
2019-03-30T19:29:01.605Z,7.97
2019-03-30T19:31:40.376Z,7.08
2019-03-30T19:34:12.034Z,6.72
2019-03-30T19:36:43.099Z,6.72
2019-03-30T19:39:14.282Z,6.75
2019-03-30T19:41:45.632Z,7.15
2019-03-30T19:44:17.028Z,7.53
2019-03-30T19:46:48.952Z,7.37
2019-03-30T19:49:36.636Z,7.05
2019-03-30T19:52:20.633Z,8.63
2019-03-30T19:54:58.169Z,9.33
2019-03-30T19:58:00.617Z,8.23
2019-03-30T20:00:52.490Z,7.87
2019-03-30T20:03:34.384Z,7.28
2019-03-30T20:06:21.435Z,7.42
2019-03-30T20:09:03.246Z,8.23
2019-03-30T20:11:36.910Z,8.05
2019-03-30T20:14:09.266Z,7.87
2019-03-30T20:16:44.545Z,8.53
2019-03-30T20:19:17.421Z,8.08
2019-03-30T20:21:57.299Z,6.28
2019-03-30T20:24:39.149Z,7.67
2019-03-30T20:27:22.971Z,9.38
2019-03-30T20:29:59.151Z,8.63
2019-03-30T20:32:29.861Z,7.95
2019-03-30T20:35:00.675Z,9.18
2019-03-30T20:37:31.560Z,10.35
2019-03-30T20:40:02.424Z,11.20
2019-03-30T20:42:35.536Z,12.03
2019-03-30T20:45:08.066Z,11.75
2019-03-30T20:47:44.342Z,13.48
2019-03-30T20:50:17.034Z,13.98
2019-03-30T20:52:47.777Z,15.65
2019-03-30T20:55:18.506Z,16.17
2019-03-30T20:57:49.210Z,18.57
2019-03-30T21:00:20.370Z,19.48
2019-03-30T21:02:51.221Z,18.00
2019-03-30T21:05:25.035Z,19.23
2019-03-30T21:07:55.872Z,20.97
2019-03-30T21:10:26.856Z,22.58
2019-03-30T21:12:57.540Z,22.07
2019-03-30T21:15:28.492Z,23.00
2019-03-30T21:18:09.084Z,24.00
2019-03-30T21:20:44.543Z,26.42
2019-03-30T21:23:15.333Z,24.23
2019-03-30T21:25:46.060Z,25.12
2019-03-30T21:28:25.121Z,24.37
2019-03-30T21:30:58.671Z,27.02
2019-03-30T21:33:29.499Z,26.33
2019-03-30T21:36:00.335Z,27.45
2019-03-30T21:38:33.391Z,24.70
2019-03-30T21:41:04.831Z,25.30
2019-03-30T21:43:37.381Z,25.12
2019-03-30T21:46:14.038Z,26.77
2019-03-30T21:48:46.802Z,26.45
2019-03-30T21:51:18.002Z,26.48
2019-03-30T21:53:49.990Z,27.93
2019-03-30T21:56:21.611Z,28.92
2019-03-30T21:58:54.033Z,27.75
2019-03-30T22:01:25.873Z,30.27
2019-03-30T22:03:57.046Z,31.15
2019-03-30T22:06:28.399Z,29.20
2019-03-30T22:09:00.652Z,28.52
2019-03-30T22:11:36.158Z,31.02
2019-03-30T22:14:07.926Z,31.75
2019-03-30T22:16:39.309Z,30.82
2019-03-30T22:19:12.525Z,33.00
2019-03-30T22:21:46.475Z,31.62
2019-03-30T22:24:17.921Z,34.75
2019-03-30T22:26:51.903Z,35.10
2019-03-30T22:29:35.715Z,32.67
2019-03-30T22:32:08.943Z,35.80
2019-03-30T22:34:43.628Z,34.05
2019-03-30T22:37:16.655Z,33.85
2019-03-30T22:39:50.591Z,35.75
2019-03-30T22:42:28.070Z,34.98
2019-03-30T22:45:00.505Z,36.60
2019-03-30T22:47:31.876Z,35.13
2019-03-30T22:50:06.511Z,38.28
2019-03-30T22:52:39.157Z,38.42
2019-03-30T22:55:13.145Z,38.10
2019-03-30T22:57:46.277Z,38.08
2019-03-30T23:00:39.621Z,36.73
2019-03-30T23:03:15.874Z,37.50
2019-03-30T23:05:48.985Z,40.05
2019-03-30T23:08:19.750Z,40.12
2019-03-30T23:10:58.251Z,40.35
2019-03-30T23:13:28.998Z,39.25
2019-03-30T23:15:59.862Z,38.02
2019-03-30T23:18:32.960Z,38.50
2019-03-30T23:21:03.721Z,39.70
2019-03-30T23:23:34.379Z,40.38
2019-03-30T23:26:05.111Z,37.50
2019-03-30T23:28:36.088Z,40.20
2019-03-30T23:31:06.856Z,39.78
2019-03-30T23:33:37.612Z,39.42
2019-03-30T23:36:08.503Z,39.85
2019-03-30T23:38:39.447Z,38.45
2019-03-30T23:41:10.130Z,41.18
2019-03-30T23:43:41.338Z,38.50
2019-03-30T23:46:14.742Z,39.27
2019-03-30T23:48:45.571Z,39.95
2019-03-30T23:51:19.465Z,40.00
2019-03-30T23:53:51.262Z,40.38
2019-03-30T23:56:24.962Z,40.55
2019-03-30T23:58:55.838Z,39.88
